Airfield :
LOGIN :

Register | Disclaimer

   EN    FR    IT 

 










Legend :    VFR   Marginal VFR   IFR   Intensive IFR   Very Intensive IFR
Visi :
Ceiling :
>= 8 km
>= 3000ft
5 to 8 km
1000 to 3000 ft
1500m to 5 km
500 to 1000 ft
800 to 1500m
200 to 500 ft
< 800m
< 200 ft
Symbols :   Thunderstorms  Fog  Heavy snow  Heavy precipitations  Wind > 20 kt
SIGMETs :     Misc.  Thunderstorms  Icing  Turbulence  Mountain Waves  Volcanic Ashes







- Airport Elevation : 489 ft
- IATA code : GDN


EPGD - Gdansk

CURRENT METAR :
  • 200230Z VRB02KT 7000 NSC 14/12 Q1016

EXPIRED METARs :
  • 200200Z VRB01KT CAVOK 13/12 Q1016
  • 200130Z 27002KT CAVOK 14/13 Q1016
  • 200100Z VRB01KT 6000 NSC 15/14 Q1017
  • 200030Z VRB01KT 9999 0300W BCFG NSC 15/14 Q1017
  • 200000Z 17002KT 9999 1000W NSC 15/13 Q1017

TAF TAF EPGD
Valid from the 20 at 00:00 until the 21 at 00:00 UTC


192330Z 2000/2024 18003KT CAVOK
PROB40 2000/2005 2000 BR
BECMG 2008/2011 26010KT
BECMG 2020/2022 16004KT
No reported NOTAMs for that airfield.



MET'MAP, your aeronautical weather chart ! - Copyright ORBIFLY December 2007 - Disclaimer

ORBIFLY MET'MAP TEAM :

Programming & Development : Alexandra Zaïnal
Concept & Development : Baudouin d'Aumeries
Co-Development & Prog : Marc-Olivier Méhu
Technical & hardware support : Manuel Goepfert

Contact : metmap@orbifly.com




SOURCES & CREDITS :

   NOAA